sensor_id;sensor_type;location;lat;lon;timestamp;P1;durP1;ratioP1;P2;durP2;ratioP2
7761;SDS011;3925;48.636;9.516;2023-04-06T00:00:23;9.40;;;7.07;;
7761;SDS011;3925;48.636;9.516;2023-04-06T00:02:50;7.70;;;6.90;;
7761;SDS011;3925;48.636;9.516;2023-04-06T00:05:17;8.30;;;7.50;;
7761;SDS011;3925;48.636;9.516;2023-04-06T00:07:44;11.60;;;7.80;;
7761;SDS011;3925;48.636;9.516;2023-04-06T00:10:11;11.17;;;10.07;;
7761;SDS011;3925;48.636;9.516;2023-04-06T00:12:38;13.33;;;10.40;;
7761;SDS011;3925;48.636;9.516;2023-04-06T00:15:06;10.37;;;9.23;;
7761;SDS011;3925;48.636;9.516;2023-04-06T00:17:35;11.20;;;8.80;;
7761;SDS011;3925;48.636;9.516;2023-04-06T00:20:02;9.17;;;8.03;;
7761;SDS011;3925;48.636;9.516;2023-04-06T00:22:29;9.33;;;8.40;;
7761;SDS011;3925;48.636;9.516;2023-04-06T00:24:56;9.70;;;8.03;;
7761;SDS011;3925;48.636;9.516;2023-04-06T00:27:23;11.70;;;10.20;;
7761;SDS011;3925;48.636;9.516;2023-04-06T00:29:50;11.33;;;8.63;;
7761;SDS011;3925;48.636;9.516;2023-04-06T00:32:16;10.07;;;8.87;;
7761;SDS011;3925;48.636;9.516;2023-04-06T00:34:45;8.90;;;7.13;;
7761;SDS011;3925;48.636;9.516;2023-04-06T00:37:12;9.87;;;8.87;;
7761;SDS011;3925;48.636;9.516;2023-04-06T00:39:39;8.60;;;7.70;;
7761;SDS011;3925;48.636;9.516;2023-04-06T00:42:07;8.70;;;7.80;;
7761;SDS011;3925;48.636;9.516;2023-04-06T00:44:38;12.50;;;9.10;;
7761;SDS011;3925;48.636;9.516;2023-04-06T00:47:05;12.57;;;8.40;;
7761;SDS011;3925;48.636;9.516;2023-04-06T00:49:32;9.33;;;7.77;;
7761;SDS011;3925;48.636;9.516;2023-04-06T00:52:01;11.23;;;7.80;;
7761;SDS011;3925;48.636;9.516;2023-04-06T00:54:28;9.53;;;8.60;;
7761;SDS011;3925;48.636;9.516;2023-04-06T00:56:55;8.57;;;7.80;;
7761;SDS011;3925;48.636;9.516;2023-04-06T00:59:22;9.13;;;7.90;;
7761;SDS011;3925;48.636;9.516;2023-04-06T01:01:50;8.73;;;7.87;;
7761;SDS011;3925;48.636;9.516;2023-04-06T01:04:17;9.70;;;8.70;;
7761;SDS011;3925;48.636;9.516;2023-04-06T01:06:44;11.53;;;9.07;;
7761;SDS011;3925;48.636;9.516;2023-04-06T01:09:12;10.77;;;8.90;;
7761;SDS011;3925;48.636;9.516;2023-04-06T01:11:39;10.50;;;9.50;;
7761;SDS011;3925;48.636;9.516;2023-04-06T01:14:06;11.50;;;9.13;;
7761;SDS011;3925;48.636;9.516;2023-04-06T01:16:33;10.03;;;9.00;;
7761;SDS011;3925;48.636;9.516;2023-04-06T01:19:00;11.23;;;8.63;;
7761;SDS011;3925;48.636;9.516;2023-04-06T01:21:27;10.50;;;8.83;;
7761;SDS011;3925;48.636;9.516;2023-04-06T01:23:56;9.53;;;8.23;;
7761;SDS011;3925;48.636;9.516;2023-04-06T01:26:23;10.17;;;9.17;;
7761;SDS011;3925;48.636;9.516;2023-04-06T01:28:50;10.83;;;9.27;;
7761;SDS011;3925;48.636;9.516;2023-04-06T01:31:17;11.00;;;9.93;;
7761;SDS011;3925;48.636;9.516;2023-04-06T01:33:44;10.53;;;9.17;;
7761;SDS011;3925;48.636;9.516;2023-04-06T01:36:11;12.13;;;10.60;;
7761;SDS011;3925;48.636;9.516;2023-04-06T01:38:39;12.13;;;10.23;;
7761;SDS011;3925;48.636;9.516;2023-04-06T01:41:07;13.13;;;10.50;;
7761;SDS011;3925;48.636;9.516;2023-04-06T01:43:35;10.17;;;8.80;;
7761;SDS011;3925;48.636;9.516;2023-04-06T01:46:02;14.67;;;10.03;;
7761;SDS011;3925;48.636;9.516;2023-04-06T01:48:30;10.23;;;9.00;;
7761;SDS011;3925;48.636;9.516;2023-04-06T01:50:57;11.50;;;10.10;;
7761;SDS011;3925;48.636;9.516;2023-04-06T01:53:24;9.60;;;8.60;;
7761;SDS011;3925;48.636;9.516;2023-04-06T01:55:51;10.00;;;9.00;;
7761;SDS011;3925;48.636;9.516;2023-04-06T01:58:19;10.37;;;9.33;;
7761;SDS011;3925;48.636;9.516;2023-04-06T02:00:46;11.13;;;9.83;;
7761;SDS011;3925;48.636;9.516;2023-04-06T02:03:13;10.80;;;8.90;;
7761;SDS011;3925;48.636;9.516;2023-04-06T02:05:40;9.63;;;8.67;;
7761;SDS011;3925;48.636;9.516;2023-04-06T02:08:07;11.20;;;9.03;;
7761;SDS011;3925;48.636;9.516;2023-04-06T02:10:34;9.90;;;9.00;;
7761;SDS011;3925;48.636;9.516;2023-04-06T02:13:01;11.53;;;9.10;;
7761;SDS011;3925;48.636;9.516;2023-04-06T02:15:29;10.73;;;8.83;;
7761;SDS011;3925;48.636;9.516;2023-04-06T02:17:56;10.30;;;9.30;;
7761;SDS011;3925;48.636;9.516;2023-04-06T02:20:25;10.73;;;9.33;;
7761;SDS011;3925;48.636;9.516;2023-04-06T02:22:52;9.97;;;8.97;;
7761;SDS011;3925;48.636;9.516;2023-04-06T02:25:19;8.90;;;8.03;;
7761;SDS011;3925;48.636;9.516;2023-04-06T02:27:46;9.47;;;8.50;;
7761;SDS011;3925;48.636;9.516;2023-04-06T02:30:13;11.07;;;9.13;;
7761;SDS011;3925;48.636;9.516;2023-04-06T02:32:41;12.60;;;8.43;;
7761;SDS011;3925;48.636;9.516;2023-04-06T02:35:08;10.70;;;9.43;;
7761;SDS011;3925;48.636;9.516;2023-04-06T02:37:35;11.47;;;9.10;;
7761;SDS011;3925;48.636;9.516;2023-04-06T02:40:02;11.50;;;10.30;;
7761;SDS011;3925;48.636;9.516;2023-04-06T02:42:31;11.57;;;10.00;;
7761;SDS011;3925;48.636;9.516;2023-04-06T02:44:58;10.90;;;9.87;;
7761;SDS011;3925;48.636;9.516;2023-04-06T02:47:25;10.60;;;9.60;;
7761;SDS011;3925;48.636;9.516;2023-04-06T02:49:53;11.87;;;10.70;;
7761;SDS011;3925;48.636;9.516;2023-04-06T02:52:20;10.93;;;9.47;;
7761;SDS011;3925;48.636;9.516;2023-04-06T02:54:47;12.70;;;10.73;;
7761;SDS011;3925;48.636;9.516;2023-04-06T02:57:16;11.90;;;10.47;;
7761;SDS011;3925;48.636;9.516;2023-04-06T02:59:43;11.83;;;10.10;;
7761;SDS011;3925;48.636;9.516;2023-04-06T03:02:10;9.60;;;8.70;;
7761;SDS011;3925;48.636;9.516;2023-04-06T03:04:36;10.73;;;8.90;;
7761;SDS011;3925;48.636;9.516;2023-04-06T03:07:05;10.40;;;9.27;;
7761;SDS011;3925;48.636;9.516;2023-04-06T03:09:32;10.27;;;9.37;;
7761;SDS011;3925;48.636;9.516;2023-04-06T03:11:59;14.40;;;10.20;;
7761;SDS011;3925;48.636;9.516;2023-04-06T03:14:27;12.63;;;10.03;;
7761;SDS011;3925;48.636;9.516;2023-04-06T03:16:54;12.17;;;10.53;;
7761;SDS011;3925;48.636;9.516;2023-04-06T03:19:21;10.67;;;9.40;;
7761;SDS011;3925;48.636;9.516;2023-04-06T03:21:48;13.03;;;10.80;;
7761;SDS011;3925;48.636;9.516;2023-04-06T03:24:16;12.00;;;10.70;;
7761;SDS011;3925;48.636;9.516;2023-04-06T03:26:43;12.63;;;9.10;;
7761;SDS011;3925;48.636;9.516;2023-04-06T03:29:10;13.23;;;10.40;;
7761;SDS011;3925;48.636;9.516;2023-04-06T03:31:37;11.30;;;9.90;;
7761;SDS011;3925;48.636;9.516;2023-04-06T03:34:04;10.40;;;9.33;;
7761;SDS011;3925;48.636;9.516;2023-04-06T03:36:31;11.43;;;9.67;;
7761;SDS011;3925;48.636;9.516;2023-04-06T03:38:58;11.83;;;10.40;;
7761;SDS011;3925;48.636;9.516;2023-04-06T03:41:26;12.17;;;9.53;;
7761;SDS011;3925;48.636;9.516;2023-04-06T03:43:53;10.80;;;9.70;;
7761;SDS011;3925;48.636;9.516;2023-04-06T03:46:20;9.80;;;8.33;;
7761;SDS011;3925;48.636;9.516;2023-04-06T03:48:48;12.20;;;9.87;;
7761;SDS011;3925;48.636;9.516;2023-04-06T03:51:15;12.80;;;9.33;;
7761;SDS011;3925;48.636;9.516;2023-04-06T03:53:42;10.80;;;9.40;;
7761;SDS011;3925;48.636;9.516;2023-04-06T03:56:09;13.67;;;10.20;;
7761;SDS011;3925;48.636;9.516;2023-04-06T03:58:37;10.50;;;8.97;;
7761;SDS011;3925;48.636;9.516;2023-04-06T04:01:04;11.17;;;10.03;;
7761;SDS011;3925;48.636;9.516;2023-04-06T04:03:31;11.77;;;10.40;;
7761;SDS011;3925;48.636;9.516;2023-04-06T04:05:58;9.80;;;8.80;;
7761;SDS011;3925;48.636;9.516;2023-04-06T04:08:25;12.03;;;9.57;;
7761;SDS011;3925;48.636;9.516;2023-04-06T04:10:51;13.67;;;12.03;;
7761;SDS011;3925;48.636;9.516;2023-04-06T04:13:18;13.30;;;9.80;;
7761;SDS011;3925;48.636;9.516;2023-04-06T04:15:47;11.63;;;8.97;;
7761;SDS011;3925;48.636;9.516;2023-04-06T04:18:14;12.00;;;9.97;;
7761;SDS011;3925;48.636;9.516;2023-04-06T04:20:41;10.93;;;9.73;;
7761;SDS011;3925;48.636;9.516;2023-04-06T04:23:08;12.10;;;10.90;;
7761;SDS011;3925;48.636;9.516;2023-04-06T04:25:35;15.60;;;11.77;;
7761;SDS011;3925;48.636;9.516;2023-04-06T04:28:02;13.00;;;9.83;;
7761;SDS011;3925;48.636;9.516;2023-04-06T04:30:29;12.47;;;10.00;;
7761;SDS011;3925;48.636;9.516;2023-04-06T04:32:57;14.37;;;10.77;;
7761;SDS011;3925;48.636;9.516;2023-04-06T04:35:24;14.10;;;9.90;;
7761;SDS011;3925;48.636;9.516;2023-04-06T04:37:51;11.80;;;9.27;;
7761;SDS011;3925;48.636;9.516;2023-04-06T04:40:18;13.73;;;10.33;;
7761;SDS011;3925;48.636;9.516;2023-04-06T04:42:45;10.93;;;8.97;;
7761;SDS011;3925;48.636;9.516;2023-04-06T04:45:12;12.93;;;11.63;;
7761;SDS011;3925;48.636;9.516;2023-04-06T04:47:39;10.40;;;8.77;;
7761;SDS011;3925;48.636;9.516;2023-04-06T04:50:08;11.00;;;9.13;;
7761;SDS011;3925;48.636;9.516;2023-04-06T04:52:37;14.43;;;9.47;;
7761;SDS011;3925;48.636;9.516;2023-04-06T04:55:04;9.47;;;7.77;;
7761;SDS011;3925;48.636;9.516;2023-04-06T04:57:31;11.07;;;8.20;;
7761;SDS011;3925;48.636;9.516;2023-04-06T04:59:58;11.50;;;10.30;;
7761;SDS011;3925;48.636;9.516;2023-04-06T05:02:26;10.50;;;9.33;;
7761;SDS011;3925;48.636;9.516;2023-04-06T05:04:53;11.53;;;9.17;;
7761;SDS011;3925;48.636;9.516;2023-04-06T05:07:21;9.97;;;8.63;;
7761;SDS011;3925;48.636;9.516;2023-04-06T05:09:48;13.90;;;9.67;;
7761;SDS011;3925;48.636;9.516;2023-04-06T05:12:15;9.90;;;8.87;;
7761;SDS011;3925;48.636;9.516;2023-04-06T05:14:42;10.10;;;8.97;;
7761;SDS011;3925;48.636;9.516;2023-04-06T05:17:10;10.97;;;9.87;;
7761;SDS011;3925;48.636;9.516;2023-04-06T05:19:37;11.97;;;8.77;;
7761;SDS011;3925;48.636;9.516;2023-04-06T05:22:04;11.87;;;9.10;;
7761;SDS011;3925;48.636;9.516;2023-04-06T05:24:32;14.97;;;10.40;;
7761;SDS011;3925;48.636;9.516;2023-04-06T05:27:00;14.10;;;11.57;;
7761;SDS011;3925;48.636;9.516;2023-04-06T05:29:27;17.90;;;13.20;;
7761;SDS011;3925;48.636;9.516;2023-04-06T05:31:54;12.30;;;11.00;;
7761;SDS011;3925;48.636;9.516;2023-04-06T05:34:21;12.13;;;10.90;;
7761;SDS011;3925;48.636;9.516;2023-04-06T05:36:48;16.83;;;10.80;;
7761;SDS011;3925;48.636;9.516;2023-04-06T05:39:15;14.73;;;12.50;;
7761;SDS011;3925;48.636;9.516;2023-04-06T05:41:43;13.20;;;11.23;;
7761;SDS011;3925;48.636;9.516;2023-04-06T05:44:10;12.70;;;10.70;;
7761;SDS011;3925;48.636;9.516;2023-04-06T05:46:37;11.90;;;9.93;;
7761;SDS011;3925;48.636;9.516;2023-04-06T05:49:04;10.40;;;9.30;;
7761;SDS011;3925;48.636;9.516;2023-04-06T05:51:31;11.40;;;9.70;;
7761;SDS011;3925;48.636;9.516;2023-04-06T05:53:58;16.03;;;10.87;;
7761;SDS011;3925;48.636;9.516;2023-04-06T05:56:25;12.40;;;9.37;;
7761;SDS011;3925;48.636;9.516;2023-04-06T05:58:54;11.50;;;10.33;;
7761;SDS011;3925;48.636;9.516;2023-04-06T06:01:20;11.23;;;9.10;;
7761;SDS011;3925;48.636;9.516;2023-04-06T06:03:47;12.23;;;9.43;;
7761;SDS011;3925;48.636;9.516;2023-04-06T06:06:14;13.10;;;10.27;;
7761;SDS011;3925;48.636;9.516;2023-04-06T06:08:41;11.30;;;8.90;;
7761;SDS011;3925;48.636;9.516;2023-04-06T06:11:08;10.03;;;9.13;;
7761;SDS011;3925;48.636;9.516;2023-04-06T06:13:35;9.20;;;8.40;;
7761;SDS011;3925;48.636;9.516;2023-04-06T06:16:04;9.50;;;8.50;;
7761;SDS011;3925;48.636;9.516;2023-04-06T06:18:31;10.37;;;9.30;;
7761;SDS011;3925;48.636;9.516;2023-04-06T06:20:58;9.80;;;8.80;;
7761;SDS011;3925;48.636;9.516;2023-04-06T06:23:25;10.40;;;9.40;;
7761;SDS011;3925;48.636;9.516;2023-04-06T06:25:52;10.83;;;9.90;;
7761;SDS011;3925;48.636;9.516;2023-04-06T06:28:21;10.57;;;9.47;;
7761;SDS011;3925;48.636;9.516;2023-04-06T06:30:50;9.93;;;9.03;;
7761;SDS011;3925;48.636;9.516;2023-04-06T06:33:18;10.87;;;9.77;;
7761;SDS011;3925;48.636;9.516;2023-04-06T06:35:45;11.03;;;10.03;;
7761;SDS011;3925;48.636;9.516;2023-04-06T06:38:12;10.50;;;9.50;;
7761;SDS011;3925;48.636;9.516;2023-04-06T06:40:39;10.60;;;9.70;;
7761;SDS011;3925;48.636;9.516;2023-04-06T06:43:06;11.73;;;10.73;;
7761;SDS011;3925;48.636;9.516;2023-04-06T06:45:33;11.67;;;10.57;;
7761;SDS011;3925;48.636;9.516;2023-04-06T06:48:00;11.17;;;10.17;;
7761;SDS011;3925;48.636;9.516;2023-04-06T06:50:29;11.10;;;10.10;;
7761;SDS011;3925;48.636;9.516;2023-04-06T06:52:56;11.83;;;10.80;;
7761;SDS011;3925;48.636;9.516;2023-04-06T06:55:23;10.97;;;10.00;;
7761;SDS011;3925;48.636;9.516;2023-04-06T06:57:50;12.90;;;11.60;;
7761;SDS011;3925;48.636;9.516;2023-04-06T07:00:17;10.90;;;10.00;;
7761;SDS011;3925;48.636;9.516;2023-04-06T07:02:45;10.67;;;9.70;;
7761;SDS011;3925;48.636;9.516;2023-04-06T07:05:12;11.63;;;10.63;;
7761;SDS011;3925;48.636;9.516;2023-04-06T07:07:41;11.07;;;10.00;;
7761;SDS011;3925;48.636;9.516;2023-04-06T07:10:08;12.77;;;11.57;;
7761;SDS011;3925;48.636;9.516;2023-04-06T07:12:36;11.67;;;10.67;;
7761;SDS011;3925;48.636;9.516;2023-04-06T07:15:03;10.73;;;9.87;;
7761;SDS011;3925;48.636;9.516;2023-04-06T07:17:31;11.17;;;10.10;;
7761;SDS011;3925;48.636;9.516;2023-04-06T07:19:58;11.30;;;10.13;;
7761;SDS011;3925;48.636;9.516;2023-04-06T07:22:25;9.10;;;8.40;;
7761;SDS011;3925;48.636;9.516;2023-04-06T07:24:53;9.33;;;8.63;;
7761;SDS011;3925;48.636;9.516;2023-04-06T07:27:20;11.87;;;10.87;;
7761;SDS011;3925;48.636;9.516;2023-04-06T07:29:48;11.83;;;10.63;;
7761;SDS011;3925;48.636;9.516;2023-04-06T07:32:14;11.00;;;10.10;;
7761;SDS011;3925;48.636;9.516;2023-04-06T07:34:41;10.87;;;9.83;;
7761;SDS011;3925;48.636;9.516;2023-04-06T07:37:10;10.80;;;9.90;;
7761;SDS011;3925;48.636;9.516;2023-04-06T07:39:37;10.80;;;9.90;;
7761;SDS011;3925;48.636;9.516;2023-04-06T07:42:05;8.70;;;7.80;;
7761;SDS011;3925;48.636;9.516;2023-04-06T07:44:32;9.27;;;8.47;;
7761;SDS011;3925;48.636;9.516;2023-04-06T07:46:59;9.60;;;8.90;;
7761;SDS011;3925;48.636;9.516;2023-04-06T07:49:26;8.87;;;8.17;;
7761;SDS011;3925;48.636;9.516;2023-04-06T07:51:53;10.20;;;9.40;;
7761;SDS011;3925;48.636;9.516;2023-04-06T07:54:20;9.47;;;8.73;;
7761;SDS011;3925;48.636;9.516;2023-04-06T07:56:47;9.77;;;8.97;;
7761;SDS011;3925;48.636;9.516;2023-04-06T07:59:16;9.83;;;8.03;;
7761;SDS011;3925;48.636;9.516;2023-04-06T08:01:43;9.97;;;8.67;;
7761;SDS011;3925;48.636;9.516;2023-04-06T08:04:10;9.90;;;9.10;;
7761;SDS011;3925;48.636;9.516;2023-04-06T08:06:36;8.97;;;8.27;;
7761;SDS011;3925;48.636;9.516;2023-04-06T08:09:03;9.57;;;8.83;;
7761;SDS011;3925;48.636;9.516;2023-04-06T08:11:30;9.77;;;8.77;;
7761;SDS011;3925;48.636;9.516;2023-04-06T08:13:57;9.50;;;8.77;;
7761;SDS011;3925;48.636;9.516;2023-04-06T08:16:25;9.43;;;8.67;;
7761;SDS011;3925;48.636;9.516;2023-04-06T08:18:52;9.63;;;8.83;;
7761;SDS011;3925;48.636;9.516;2023-04-06T08:21:19;9.23;;;8.47;;
7761;SDS011;3925;48.636;9.516;2023-04-06T08:23:46;8.70;;;8.10;;
7761;SDS011;3925;48.636;9.516;2023-04-06T08:26:13;9.03;;;8.33;;
7761;SDS011;3925;48.636;9.516;2023-04-06T08:28:40;10.10;;;9.30;;
7761;SDS011;3925;48.636;9.516;2023-04-06T08:31:07;10.67;;;9.77;;
7761;SDS011;3925;48.636;9.516;2023-04-06T08:33:35;9.67;;;8.77;;
7761;SDS011;3925;48.636;9.516;2023-04-06T08:36:08;9.93;;;9.20;;
7761;SDS011;3925;48.636;9.516;2023-04-06T08:38:36;10.27;;;9.33;;
7761;SDS011;3925;48.636;9.516;2023-04-06T08:41:08;10.97;;;10.10;;
7761;SDS011;3925;48.636;9.516;2023-04-06T08:43:41;10.77;;;9.87;;
7761;SDS011;3925;48.636;9.516;2023-04-06T08:46:10;10.30;;;9.40;;
7761;SDS011;3925;48.636;9.516;2023-04-06T08:48:39;10.10;;;9.40;;
7761;SDS011;3925;48.636;9.516;2023-04-06T08:51:08;9.83;;;9.10;;
7761;SDS011;3925;48.636;9.516;2023-04-06T08:53:35;9.57;;;8.67;;
7761;SDS011;3925;48.636;9.516;2023-04-06T08:56:04;11.93;;;10.83;;
7761;SDS011;3925;48.636;9.516;2023-04-06T08:58:34;10.60;;;9.80;;
7761;SDS011;3925;48.636;9.516;2023-04-06T09:01:02;10.43;;;9.57;;
7761;SDS011;3925;48.636;9.516;2023-04-06T09:03:32;9.77;;;8.93;;
7761;SDS011;3925;48.636;9.516;2023-04-06T09:06:05;10.53;;;9.73;;
7761;SDS011;3925;48.636;9.516;2023-04-06T09:08:32;9.40;;;8.70;;
7761;SDS011;3925;48.636;9.516;2023-04-06T09:11:00;10.23;;;9.33;;
7761;SDS011;3925;48.636;9.516;2023-04-06T09:13:27;11.83;;;10.87;;
7761;SDS011;3925;48.636;9.516;2023-04-06T09:16:00;11.80;;;10.70;;
7761;SDS011;3925;48.636;9.516;2023-04-06T09:18:29;11.80;;;10.70;;
7761;SDS011;3925;48.636;9.516;2023-04-06T09:20:57;10.70;;;9.80;;
7761;SDS011;3925;48.636;9.516;2023-04-06T09:23:26;10.50;;;9.60;;
7761;SDS011;3925;48.636;9.516;2023-04-06T09:26:04;10.80;;;9.90;;
7761;SDS011;3925;48.636;9.516;2023-04-06T09:28:41;9.50;;;8.80;;
7761;SDS011;3925;48.636;9.516;2023-04-06T09:31:09;10.13;;;9.23;;
7761;SDS011;3925;48.636;9.516;2023-04-06T09:33:37;10.77;;;9.87;;
7761;SDS011;3925;48.636;9.516;2023-04-06T09:36:05;9.30;;;8.60;;
7761;SDS011;3925;48.636;9.516;2023-04-06T09:38:36;10.77;;;9.87;;
7761;SDS011;3925;48.636;9.516;2023-04-06T09:41:04;9.00;;;8.40;;
7761;SDS011;3925;48.636;9.516;2023-04-06T09:43:31;8.67;;;7.97;;
7761;SDS011;3925;48.636;9.516;2023-04-06T09:45:58;8.20;;;7.50;;
7761;SDS011;3925;48.636;9.516;2023-04-06T09:48:28;8.87;;;8.07;;
7761;SDS011;3925;48.636;9.516;2023-04-06T09:51:01;7.70;;;7.20;;
7761;SDS011;3925;48.636;9.516;2023-04-06T09:53:31;9.93;;;8.97;;
7761;SDS011;3925;48.636;9.516;2023-04-06T09:56:03;9.07;;;8.20;;
7761;SDS011;3925;48.636;9.516;2023-04-06T09:58:37;8.80;;;8.10;;
7761;SDS011;3925;48.636;9.516;2023-04-06T10:01:09;8.90;;;8.13;;
7761;SDS011;3925;48.636;9.516;2023-04-06T10:03:40;9.73;;;8.93;;
7761;SDS011;3925;48.636;9.516;2023-04-06T10:06:14;9.87;;;9.00;;
7761;SDS011;3925;48.636;9.516;2023-04-06T10:08:48;9.77;;;9.07;;
7761;SDS011;3925;48.636;9.516;2023-04-06T10:11:20;9.10;;;8.33;;
7761;SDS011;3925;48.636;9.516;2023-04-06T10:13:48;10.50;;;9.70;;
7761;SDS011;3925;48.636;9.516;2023-04-06T10:16:16;10.00;;;9.20;;
7761;SDS011;3925;48.636;9.516;2023-04-06T10:18:46;9.03;;;8.20;;
7761;SDS011;3925;48.636;9.516;2023-04-06T10:21:17;9.37;;;8.47;;
7761;SDS011;3925;48.636;9.516;2023-04-06T10:23:48;9.70;;;8.90;;
7761;SDS011;3925;48.636;9.516;2023-04-06T10:26:21;8.70;;;8.00;;
7761;SDS011;3925;48.636;9.516;2023-04-06T10:28:49;8.70;;;8.00;;
7761;SDS011;3925;48.636;9.516;2023-04-06T10:31:23;8.90;;;8.10;;
7761;SDS011;3925;48.636;9.516;2023-04-06T10:33:54;9.20;;;8.30;;
7761;SDS011;3925;48.636;9.516;2023-04-06T10:36:23;9.10;;;8.20;;
7761;SDS011;3925;48.636;9.516;2023-04-06T10:38:55;8.33;;;7.73;;
7761;SDS011;3925;48.636;9.516;2023-04-06T10:41:25;9.20;;;7.27;;
7761;SDS011;3925;48.636;9.516;2023-04-06T10:43:59;9.00;;;8.20;;
7761;SDS011;3925;48.636;9.516;2023-04-06T10:46:26;7.80;;;7.20;;
7761;SDS011;3925;48.636;9.516;2023-04-06T10:48:53;8.00;;;7.30;;
7761;SDS011;3925;48.636;9.516;2023-04-06T10:51:24;8.03;;;7.43;;
7761;SDS011;3925;48.636;9.516;2023-04-06T10:53:53;7.47;;;6.97;;
7761;SDS011;3925;48.636;9.516;2023-04-06T10:56:21;8.60;;;7.97;;
7761;SDS011;3925;48.636;9.516;2023-04-06T10:58:52;7.77;;;7.17;;
7761;SDS011;3925;48.636;9.516;2023-04-06T11:01:21;9.97;;;9.27;;
7761;SDS011;3925;48.636;9.516;2023-04-06T11:03:50;8.50;;;7.80;;
7761;SDS011;3925;48.636;9.516;2023-04-06T11:06:21;7.80;;;7.20;;
7761;SDS011;3925;48.636;9.516;2023-04-06T11:08:48;9.13;;;8.20;;
7761;SDS011;3925;48.636;9.516;2023-04-06T11:11:16;7.47;;;6.97;;
7761;SDS011;3925;48.636;9.516;2023-04-06T11:13:45;8.80;;;8.10;;
7761;SDS011;3925;48.636;9.516;2023-04-06T11:16:15;8.67;;;8.00;;
7761;SDS011;3925;48.636;9.516;2023-04-06T11:18:48;9.47;;;8.77;;
7761;SDS011;3925;48.636;9.516;2023-04-06T11:21:19;9.00;;;8.20;;
7761;SDS011;3925;48.636;9.516;2023-04-06T11:24:03;9.00;;;8.20;;
7761;SDS011;3925;48.636;9.516;2023-04-06T11:26:31;9.37;;;8.57;;
7761;SDS011;3925;48.636;9.516;2023-04-06T11:29:02;9.50;;;8.60;;
7761;SDS011;3925;48.636;9.516;2023-04-06T11:31:31;9.00;;;8.30;;
7761;SDS011;3925;48.636;9.516;2023-04-06T11:34:08;9.50;;;8.60;;
7761;SDS011;3925;48.636;9.516;2023-04-06T11:36:39;9.57;;;8.77;;
7761;SDS011;3925;48.636;9.516;2023-04-06T11:39:07;10.40;;;9.50;;
7761;SDS011;3925;48.636;9.516;2023-04-06T11:41:34;10.80;;;9.90;;
7761;SDS011;3925;48.636;9.516;2023-04-06T11:44:02;11.00;;;10.00;;
7761;SDS011;3925;48.636;9.516;2023-04-06T11:46:29;10.10;;;9.20;;
7761;SDS011;3925;48.636;9.516;2023-04-06T11:48:59;9.60;;;8.60;;
7761;SDS011;3925;48.636;9.516;2023-04-06T11:51:27;10.20;;;9.20;;
7761;SDS011;3925;48.636;9.516;2023-04-06T11:53:54;10.10;;;9.10;;
7761;SDS011;3925;48.636;9.516;2023-04-06T11:56:25;9.80;;;8.50;;
7761;SDS011;3925;48.636;9.516;2023-04-06T11:58:53;8.90;;;8.10;;
7761;SDS011;3925;48.636;9.516;2023-04-06T12:01:21;8.03;;;7.10;;
7761;SDS011;3925;48.636;9.516;2023-04-06T12:03:49;10.17;;;9.27;;
7761;SDS011;3925;48.636;9.516;2023-04-06T12:06:18;8.97;;;8.17;;
7761;SDS011;3925;48.636;9.516;2023-04-06T12:08:45;8.80;;;8.07;;
7761;SDS011;3925;48.636;9.516;2023-04-06T12:11:12;8.07;;;7.17;;
7761;SDS011;3925;48.636;9.516;2023-04-06T12:13:39;7.70;;;6.90;;
7761;SDS011;3925;48.636;9.516;2023-04-06T12:16:06;7.10;;;6.50;;
7761;SDS011;3925;48.636;9.516;2023-04-06T12:18:33;8.17;;;7.47;;
7761;SDS011;3925;48.636;9.516;2023-04-06T12:20:59;8.30;;;7.60;;
7761;SDS011;3925;48.636;9.516;2023-04-06T12:23:28;9.30;;;8.40;;
7761;SDS011;3925;48.636;9.516;2023-04-06T12:25:55;7.43;;;6.10;;
7761;SDS011;3925;48.636;9.516;2023-04-06T12:28:22;7.20;;;6.53;;
7761;SDS011;3925;48.636;9.516;2023-04-06T12:30:52;9.80;;;8.87;;
7761;SDS011;3925;48.636;9.516;2023-04-06T12:33:20;7.83;;;7.20;;
7761;SDS011;3925;48.636;9.516;2023-04-06T12:35:47;7.77;;;7.07;;
7761;SDS011;3925;48.636;9.516;2023-04-06T12:38:14;8.67;;;7.90;;
7761;SDS011;3925;48.636;9.516;2023-04-06T12:40:43;9.63;;;8.60;;
7761;SDS011;3925;48.636;9.516;2023-04-06T12:43:10;7.77;;;6.97;;
7761;SDS011;3925;48.636;9.516;2023-04-06T12:45:38;7.70;;;7.10;;
7761;SDS011;3925;48.636;9.516;2023-04-06T12:48:05;7.77;;;6.97;;
7761;SDS011;3925;48.636;9.516;2023-04-06T12:50:32;8.13;;;7.33;;
7761;SDS011;3925;48.636;9.516;2023-04-06T12:52:59;8.50;;;7.53;;
7761;SDS011;3925;48.636;9.516;2023-04-06T12:55:28;7.90;;;7.10;;
7761;SDS011;3925;48.636;9.516;2023-04-06T12:58:00;8.00;;;7.27;;
7761;SDS011;3925;48.636;9.516;2023-04-06T13:00:27;8.33;;;6.93;;
7761;SDS011;3925;48.636;9.516;2023-04-06T13:02:55;8.10;;;7.23;;
7761;SDS011;3925;48.636;9.516;2023-04-06T13:05:22;7.17;;;6.50;;
7761;SDS011;3925;48.636;9.516;2023-04-06T13:07:49;11.60;;;8.03;;
7761;SDS011;3925;48.636;9.516;2023-04-06T13:10:16;6.93;;;6.30;;
7761;SDS011;3925;48.636;9.516;2023-04-06T13:12:43;8.10;;;7.30;;
7761;SDS011;3925;48.636;9.516;2023-04-06T13:15:12;9.87;;;7.30;;
7761;SDS011;3925;48.636;9.516;2023-04-06T13:17:39;8.53;;;7.70;;
7761;SDS011;3925;48.636;9.516;2023-04-06T13:20:06;6.83;;;5.80;;
7761;SDS011;3925;48.636;9.516;2023-04-06T13:22:34;8.80;;;7.20;;
7761;SDS011;3925;48.636;9.516;2023-04-06T13:25:01;7.70;;;7.03;;
7761;SDS011;3925;48.636;9.516;2023-04-06T13:27:28;8.03;;;7.33;;
7761;SDS011;3925;48.636;9.516;2023-04-06T13:29:58;6.80;;;6.13;;
7761;SDS011;3925;48.636;9.516;2023-04-06T13:32:27;7.50;;;6.80;;
7761;SDS011;3925;48.636;9.516;2023-04-06T13:34:55;10.60;;;7.07;;
7761;SDS011;3925;48.636;9.516;2023-04-06T13:37:22;7.93;;;7.07;;
7761;SDS011;3925;48.636;9.516;2023-04-06T13:39:49;7.50;;;6.30;;
7761;SDS011;3925;48.636;9.516;2023-04-06T13:42:16;6.97;;;6.37;;
7761;SDS011;3925;48.636;9.516;2023-04-06T13:44:43;6.40;;;5.80;;
7761;SDS011;3925;48.636;9.516;2023-04-06T13:47:11;7.77;;;5.83;;
7761;SDS011;3925;48.636;9.516;2023-04-06T13:49:41;8.23;;;7.43;;
7761;SDS011;3925;48.636;9.516;2023-04-06T13:52:08;7.83;;;6.10;;
7761;SDS011;3925;48.636;9.516;2023-04-06T13:54:36;7.50;;;6.80;;
7761;SDS011;3925;48.636;9.516;2023-04-06T13:57:03;7.57;;;6.83;;
7761;SDS011;3925;48.636;9.516;2023-04-06T13:59:33;7.50;;;6.80;;
7761;SDS011;3925;48.636;9.516;2023-04-06T14:02:00;7.80;;;6.77;;
7761;SDS011;3925;48.636;9.516;2023-04-06T14:04:27;7.07;;;5.83;;
7761;SDS011;3925;48.636;9.516;2023-04-06T14:06:55;7.93;;;7.00;;
7761;SDS011;3925;48.636;9.516;2023-04-06T14:09:23;8.53;;;6.73;;
7761;SDS011;3925;48.636;9.516;2023-04-06T14:11:50;6.43;;;5.70;;
7761;SDS011;3925;48.636;9.516;2023-04-06T14:14:16;6.80;;;6.20;;
7761;SDS011;3925;48.636;9.516;2023-04-06T14:16:44;6.23;;;5.63;;
7761;SDS011;3925;48.636;9.516;2023-04-06T14:19:11;7.70;;;6.87;;
7761;SDS011;3925;48.636;9.516;2023-04-06T14:21:39;5.83;;;5.23;;
7761;SDS011;3925;48.636;9.516;2023-04-06T14:24:08;6.90;;;5.43;;
7761;SDS011;3925;48.636;9.516;2023-04-06T14:26:35;6.47;;;5.83;;
7761;SDS011;3925;48.636;9.516;2023-04-06T14:29:02;6.20;;;5.60;;
7761;SDS011;3925;48.636;9.516;2023-04-06T14:31:29;5.70;;;5.17;;
7761;SDS011;3925;48.636;9.516;2023-04-06T14:33:56;5.70;;;4.60;;
7761;SDS011;3925;48.636;9.516;2023-04-06T14:36:23;6.63;;;5.37;;
7761;SDS011;3925;48.636;9.516;2023-04-06T14:38:52;6.00;;;5.03;;
7761;SDS011;3925;48.636;9.516;2023-04-06T14:41:20;5.27;;;4.73;;
7761;SDS011;3925;48.636;9.516;2023-04-06T14:43:48;5.57;;;4.90;;
7761;SDS011;3925;48.636;9.516;2023-04-06T14:46:17;5.63;;;4.53;;
7761;SDS011;3925;48.636;9.516;2023-04-06T14:48:44;5.97;;;5.27;;
7761;SDS011;3925;48.636;9.516;2023-04-06T14:51:11;5.60;;;5.10;;
7761;SDS011;3925;48.636;9.516;2023-04-06T14:53:38;6.33;;;5.03;;
7761;SDS011;3925;48.636;9.516;2023-04-06T14:56:05;5.20;;;4.70;;
7761;SDS011;3925;48.636;9.516;2023-04-06T14:58:34;5.00;;;4.50;;
7761;SDS011;3925;48.636;9.516;2023-04-06T15:01:01;5.57;;;4.30;;
7761;SDS011;3925;48.636;9.516;2023-04-06T15:03:28;5.30;;;4.80;;
7761;SDS011;3925;48.636;9.516;2023-04-06T15:05:56;5.73;;;4.40;;
7761;SDS011;3925;48.636;9.516;2023-04-06T15:08:23;5.60;;;5.10;;